aviador You're here:

KOGB Decoded Metar

ORANGEBURG in SC, USA
Report Time2018-07-18 10:28:00
UTC Time2018-07-18 10:59:46
Flight Rules ifr IFR
Wind230° at 04 kt
W.Decomp.*RWY 23: 4.0 kt HW 0.5 kt RCW
RWY 17: 1.6 kt HW 3.7 kt RCW
W.Rank230° ranks 8
Current wind is below 230° avg. (6.8)
Visibility9999 m
Phenomena:N/A
Clouds:Overcast 005 Hf
Expected CloudBase > 400 ft AGL from Temp-Dew spread
Ceiling500 ft
Temp23°C (ISA +8)
Dew Point22°C (94% RH)
QNH1014 hPa
Density Alt1,483 ft
Elevation194 ft
Report Wrong Elevation
Raw Report
KOGB 181028Z AUTO 23004KT 10SM OVC005 23/22 A2993 RMK AO2
T02330222=

Extra information for KOGB:More info

Metar Taf Metar & Taf Last 4 Metars F.Rules Stats Wind Profile Meteogram Temp Stats Airport Information Weather charts Add Link Nearby VenuesMetar ALERT Operation Metar Decoded Social comments

AIRNAV info for KOGB